Detall de PIREP

Printer-friendly versionPDF version

[2011/10/22 15:24:00]
Flight IATA:CT1006
Pilot Number:026
Company ICAO:CAT
Aircraft Type:DC85/A
PAX:132
Departing Airport: LICJ
Destination Airport: LTBA
Alternate Airport:LTAC
Online: VATSIM
Route:PAL UL869 KRK UM600 TSL UM603 GOLDO UG12 EKI
Flight Level:F330
No Slew and time accel
No pause
Crash detect
Detect pilot in Cockpit between each 30 and 45 minutes
15:24 Zero fuel Weight: 178646 Lbs, Fuel Weight: 41966 Lbs
15:24 VATSIM:LICJ 221450Z 07007KT 9999 SCT055 21/15 Q1019
15:24 VATSIM:LTBA 221450Z 04012KT 010V080 9999 SCT035 16/09 Q1023 NOSIG
15:24 VOICE CATALONIAN / ALMOGAVERS ROUTE LEG3
15:26 Parking Brakes off
15:38 Take-off
15:38 Take off Weight: 219236 Lbs
15:38 Wind: 059º @ 006 Knots Heading: 067º
15:38 POS N38º 10´ 58´´ E013º 06´ 44´´
15:38 Gear Up: 157 Knots
15:38 Flaps:2 at 157 Knots
15:40 Flaps:1 at 159 Knots
15:41 Flaps:0 at 164 Knots
15:53 Wind:065º@021 Knots Heading: 073º Ground Speed: 345 Knots Altitude 27677 ft
16:02 TOC
16:02 Fuel Weight: 33988 Lb
16:05 TOD
16:05 Fuel Weight: 33193 Lb
16:06 TOC
16:06 Fuel Weight: 32966 Lb
16:08 Wind:192º@024 Knots Heading: 077º Ground Speed: 502 Knots Altitude 33175 ft
16:23 Wind:046º@024 Knots Heading: 077º Ground Speed: 464 Knots Altitude 33179 ft
16:38 Wind:326º@000 Knots Heading: 066º Ground Speed: 477 Knots Altitude 33254 ft
16:53 Wind:199º@015 Knots Heading: 081º Ground Speed: 490 Knots Altitude 33284 ft
17:06 TOD
17:06 Fuel Weight: 18629 Lb
17:08 Wind:059º@040 Knots Heading: 078º Ground Speed: 446 Knots Altitude 30885 ft
17:23 Wind:011º@021 Knots Heading: 100º Ground Speed: 284 Knots Altitude 9091 ft
17:31 Gear Down: 245 Knots
17:31 Flaps:1 at 210 Knots
17:32 Flaps:2 at 172 Knots
17:34 Flaps:3 at 142 Knots
17:34 Flaps:4 at 131 Knots
17:35 TouchDown:Rate -379 ft/min Speed: 121 Knots
17:35 VATSIM:LTBA 221650Z VRB10KT 9999 FEW035 16/09 Q1024 NOSIG
17:35 Land
17:35 Wind:025º@009 Knots
17:35 Heading: 038º
17:35 Flight Duration: 01:57
17:35 Landing Weight: 193765 Lbs
17:35 POS N40º 58´ 22´´ E028º 49´ 31´´
17:43 Parking brakes on
17:43 Block to Block Duration: 02:17
17:43 Final Fuel: 14475 Lbls
17:43 Spent Fuel: 27491 Lbls
17:43 Flight Length: 806 NM
17:43 TOD Land Length: 153 NM

Exportar CSV

Powered by Drupal - Modified by Danger4k